Wednesday, November 22, 2017, 3:58 AM EST
Back to Local

KRKD, Rockland, Knox County Regional Airport

Location: Owls Head, ME, United States Lat: 44.067
Local Time: 3:58 AM EST ( 8:58 GMT) Lon: -69.1
Time Zone: US/Eastern Elev: 55 ft

Show me the last for .
Show Coded

Time T Td Feel RH Dir Speed Gust Alt SLP Vis Weather Sky Remarks
2017-11-22 02:56 48 41 44 76 230° 8 - 29.98 29.98 10 CLR None
2017-11-22 01:56 48 40 43 73 230° 10 - 29.98 29.99 10 CLR None
2017-11-22 00:56 49 41 45 73 230° 9 - 29.98 29.99 10 CLR 6-hr Min Temp (1am): 48.9°F
6-hr Max Temp (1am): 52.0°F
2017-11-21 23:56 49 41 42 73 220° 13 20 29.98 29.98 10 CLR 24-hr Min Temp (12am): 18.0°F
24-hr Max Temp (12am): 52.0°F
2017-11-21 22:56 50 41 45 71 230° 14 - 29.97 29.98 10 CLR None
2017-11-21 21:56 51 42 - 71 220° 12 - 29.98 29.98 10 CLR None
2017-11-21 20:56 51 42 - 71 220° 15 23 29.97 29.98 10 CLR None
2017-11-21 19:56 51 42 - 71 230° 16 25 29.96 29.96 10 CLR Peak wind: 32 mph (28 kts) from 230° at 08 min
2017-11-21 18:56 52 41 - 66 220° 17 28 29.95 29.96 10 CLR Peak wind: 29 mph (26 kts) from 220° at 45 min
6-hr Min Temp (7pm): 50.0°F
6-hr Max Temp (7pm): 52.0°F
2017-11-21 17:56 52 42 - 68 220° 14 28 29.95 29.95 10 CLR None
2017-11-21 16:56 51 43 - 73 210° 16 24 29.94 29.95 10 CLR None
2017-11-21 15:56 51 43 - 73 210° 12 21 29.96 29.96 10 CLR None
2017-11-21 14:56 52 39 - 61 210° 10 22 29.97 29.97 10 CLR None
2017-11-21 13:56 51 37 - 58 220° 15 24 29.96 29.97 10 CLR None
2017-11-21 12:56 50 37 43 60 220° 13 23 29.99 29.99 10 CLR 6-hr Min Temp (1pm): 19.0°F
6-hr Max Temp (1pm): 50.0°F
2017-11-21 11:56 48 36 41 62 210° 14 22 30.00 30.01 10 CLR None
2017-11-21 10:56 48 36 41 62 210° 15 22 30.03 30.03 10 CLR None
2017-11-21 09:56 46 37 42 70 200° 7 - 30.06 30.07 10 CLR None
2017-11-21 08:56 38 30 - 72 - Calm - 30.09 30.09 10 CLR None
2017-11-21 07:56 24 21 - 87 - Calm - 30.10 30.11 10 CLR None
2017-11-21 06:56 20 17 - 88 - Calm - 30.10 30.10 10 CLR 6-hr Min Temp (7am): 18.0°F
6-hr Max Temp (7am): 21.9°F
2017-11-21 05:56 21 16 - 80 - Calm - 30.09 30.09 10 CLR None
2017-11-21 04:56 19 15 - 84 - Calm - 30.08 30.09 10 CLR None

Support USWX by starting your Amazon purchase here.